sensor_id;sensor_type;location;lat;lon;timestamp;P1;durP1;ratioP1;P2;durP2;ratioP2
79460;SDS011;68929;42.666;23.324;2023-07-29T00:01:49;3.38;;;2.80;;
79460;SDS011;68929;42.666;23.324;2023-07-29T00:04:14;4.72;;;3.13;;
79460;SDS011;68929;42.666;23.324;2023-07-29T00:06:40;4.00;;;3.50;;
79460;SDS011;68929;42.666;23.324;2023-07-29T00:09:05;4.50;;;3.67;;
79460;SDS011;68929;42.666;23.324;2023-07-29T00:11:31;4.70;;;4.22;;
79460;SDS011;68929;42.666;23.324;2023-07-29T00:13:58;4.25;;;3.22;;
79460;SDS011;68929;42.666;23.324;2023-07-29T00:16:25;3.55;;;3.25;;
79460;SDS011;68929;42.666;23.324;2023-07-29T00:18:50;3.47;;;3.13;;
79460;SDS011;68929;42.666;23.324;2023-07-29T00:21:16;5.57;;;3.35;;
79460;SDS011;68929;42.666;23.324;2023-07-29T00:23:42;5.30;;;2.80;;
79460;SDS011;68929;42.666;23.324;2023-07-29T00:26:07;4.28;;;3.50;;
79460;SDS011;68929;42.666;23.324;2023-07-29T00:28:32;5.20;;;2.92;;
79460;SDS011;68929;42.666;23.324;2023-07-29T00:30:58;6.63;;;3.28;;
79460;SDS011;68929;42.666;23.324;2023-07-29T00:33:23;4.53;;;3.40;;
79460;SDS011;68929;42.666;23.324;2023-07-29T00:35:49;3.53;;;3.08;;
79460;SDS011;68929;42.666;23.324;2023-07-29T00:38:14;5.85;;;3.22;;
79460;SDS011;68929;42.666;23.324;2023-07-29T00:40:40;4.05;;;3.40;;
79460;SDS011;68929;42.666;23.324;2023-07-29T00:43:05;3.70;;;3.35;;
79460;SDS011;68929;42.666;23.324;2023-07-29T00:45:31;3.72;;;3.38;;
79460;SDS011;68929;42.666;23.324;2023-07-29T00:47:58;3.28;;;2.90;;
79460;SDS011;68929;42.666;23.324;2023-07-29T00:50:25;4.90;;;3.20;;
79460;SDS011;68929;42.666;23.324;2023-07-29T00:52:52;3.83;;;3.13;;
79460;SDS011;68929;42.666;23.324;2023-07-29T00:55:18;3.53;;;3.10;;
79460;SDS011;68929;42.666;23.324;2023-07-29T00:57:44;3.80;;;3.25;;
79460;SDS011;68929;42.666;23.324;2023-07-29T01:00:13;3.50;;;3.10;;
79460;SDS011;68929;42.666;23.324;2023-07-29T01:02:39;3.60;;;3.30;;
79460;SDS011;68929;42.666;23.324;2023-07-29T01:05:05;5.20;;;3.00;;
79460;SDS011;68929;42.666;23.324;2023-07-29T01:13:02;5.15;;;3.63;;
79460;SDS011;68929;42.666;23.324;2023-07-29T01:18:42;3.75;;;3.38;;
79460;SDS011;68929;42.666;23.324;2023-07-29T01:21:12;5.18;;;3.00;;
79460;SDS011;68929;42.666;23.324;2023-07-29T01:23:39;5.57;;;3.30;;
79460;SDS011;68929;42.666;23.324;2023-07-29T01:26:04;5.20;;;3.28;;
79460;SDS011;68929;42.666;23.324;2023-07-29T01:28:30;3.80;;;3.28;;
79460;SDS011;68929;42.666;23.324;2023-07-29T01:31:20;3.83;;;3.40;;
79460;SDS011;68929;42.666;23.324;2023-07-29T01:33:50;3.58;;;3.25;;
79460;SDS011;68929;42.666;23.324;2023-07-29T01:36:27;5.38;;;3.38;;
79460;SDS011;68929;42.666;23.324;2023-07-29T01:38:55;3.28;;;2.95;;
79460;SDS011;68929;42.666;23.324;2023-07-29T01:41:22;5.07;;;3.17;;
79460;SDS011;68929;42.666;23.324;2023-07-29T01:43:49;4.10;;;2.92;;
79460;SDS011;68929;42.666;23.324;2023-07-29T01:46:15;3.35;;;3.05;;
79460;SDS011;68929;42.666;23.324;2023-07-29T01:48:41;4.13;;;3.45;;
79460;SDS011;68929;42.666;23.324;2023-07-29T01:51:07;4.38;;;3.20;;
79460;SDS011;68929;42.666;23.324;2023-07-29T01:53:33;4.28;;;3.00;;
79460;SDS011;68929;42.666;23.324;2023-07-29T01:55:59;4.63;;;3.40;;
79460;SDS011;68929;42.666;23.324;2023-07-29T01:58:24;5.95;;;3.30;;
79460;SDS011;68929;42.666;23.324;2023-07-29T02:00:50;3.40;;;3.08;;
79460;SDS011;68929;42.666;23.324;2023-07-29T02:03:15;5.47;;;3.63;;
79460;SDS011;68929;42.666;23.324;2023-07-29T02:05:41;5.30;;;3.60;;
79460;SDS011;68929;42.666;23.324;2023-07-29T02:08:08;3.80;;;3.40;;
79460;SDS011;68929;42.666;23.324;2023-07-29T02:10:34;3.83;;;3.42;;
79460;SDS011;68929;42.666;23.324;2023-07-29T02:13:00;5.00;;;3.70;;
79460;SDS011;68929;42.666;23.324;2023-07-29T02:15:25;3.90;;;3.50;;
79460;SDS011;68929;42.666;23.324;2023-07-29T02:17:50;6.43;;;3.90;;
79460;SDS011;68929;42.666;23.324;2023-07-29T02:20:17;6.80;;;3.60;;
79460;SDS011;68929;42.666;23.324;2023-07-29T02:22:42;3.90;;;3.53;;
79460;SDS011;68929;42.666;23.324;2023-07-29T02:25:07;3.78;;;3.30;;
79460;SDS011;68929;42.666;23.324;2023-07-29T02:27:34;3.30;;;3.00;;
79460;SDS011;68929;42.666;23.324;2023-07-29T02:30:00;3.17;;;2.88;;
79460;SDS011;68929;42.666;23.324;2023-07-29T02:32:25;3.75;;;3.15;;
79460;SDS011;68929;42.666;23.324;2023-07-29T02:34:51;6.50;;;3.67;;
79460;SDS011;68929;42.666;23.324;2023-07-29T02:37:16;3.65;;;3.28;;
79460;SDS011;68929;42.666;23.324;2023-07-29T02:39:42;4.90;;;3.92;;
79460;SDS011;68929;42.666;23.324;2023-07-29T02:42:07;3.38;;;3.08;;
79460;SDS011;68929;42.666;23.324;2023-07-29T02:44:33;5.70;;;3.95;;
79460;SDS011;68929;42.666;23.324;2023-07-29T02:46:58;4.20;;;3.60;;
79460;SDS011;68929;42.666;23.324;2023-07-29T02:49:23;3.83;;;3.53;;
79460;SDS011;68929;42.666;23.324;2023-07-29T02:51:49;4.43;;;3.25;;
79460;SDS011;68929;42.666;23.324;2023-07-29T02:54:14;4.18;;;3.22;;
79460;SDS011;68929;42.666;23.324;2023-07-29T02:56:40;3.30;;;3.00;;
79460;SDS011;68929;42.666;23.324;2023-07-29T02:59:05;4.28;;;3.30;;
79460;SDS011;68929;42.666;23.324;2023-07-29T03:01:30;5.38;;;3.60;;
79460;SDS011;68929;42.666;23.324;2023-07-29T03:03:56;3.40;;;3.10;;
79460;SDS011;68929;42.666;23.324;2023-07-29T03:06:22;4.80;;;4.22;;
79460;SDS011;68929;42.666;23.324;2023-07-29T03:08:47;4.60;;;3.83;;
79460;SDS011;68929;42.666;23.324;2023-07-29T03:11:13;4.57;;;3.10;;
79460;SDS011;68929;42.666;23.324;2023-07-29T03:13:39;5.28;;;3.63;;
79460;SDS011;68929;42.666;23.324;2023-07-29T03:16:11;3.78;;;3.47;;
79460;SDS011;68929;42.666;23.324;2023-07-29T03:18:38;4.72;;;3.65;;
79460;SDS011;68929;42.666;23.324;2023-07-29T03:21:04;3.65;;;3.30;;
79460;SDS011;68929;42.666;23.324;2023-07-29T03:23:30;3.85;;;3.40;;
79460;SDS011;68929;42.666;23.324;2023-07-29T03:25:57;3.40;;;3.10;;
79460;SDS011;68929;42.666;23.324;2023-07-29T03:28:25;4.07;;;3.50;;
79460;SDS011;68929;42.666;23.324;2023-07-29T03:30:52;4.00;;;3.53;;
79460;SDS011;68929;42.666;23.324;2023-07-29T03:33:18;4.15;;;3.40;;
79460;SDS011;68929;42.666;23.324;2023-07-29T03:35:43;4.60;;;3.42;;
79460;SDS011;68929;42.666;23.324;2023-07-29T03:38:10;4.93;;;3.28;;
79460;SDS011;68929;42.666;23.324;2023-07-29T03:40:36;4.75;;;3.47;;
79460;SDS011;68929;42.666;23.324;2023-07-29T03:43:02;5.07;;;3.45;;
79460;SDS011;68929;42.666;23.324;2023-07-29T03:45:27;6.25;;;3.10;;
79460;SDS011;68929;42.666;23.324;2023-07-29T03:47:52;4.75;;;3.58;;
79460;SDS011;68929;42.666;23.324;2023-07-29T03:50:18;3.53;;;3.22;;
79460;SDS011;68929;42.666;23.324;2023-07-29T03:52:43;5.00;;;3.28;;
79460;SDS011;68929;42.666;23.324;2023-07-29T03:55:09;5.25;;;3.08;;
79460;SDS011;68929;42.666;23.324;2023-07-29T03:57:35;6.75;;;3.20;;
79460;SDS011;68929;42.666;23.324;2023-07-29T04:00:00;3.47;;;3.17;;
79460;SDS011;68929;42.666;23.324;2023-07-29T04:02:25;3.80;;;2.83;;
79460;SDS011;68929;42.666;23.324;2023-07-29T04:04:54;5.65;;;3.13;;
79460;SDS011;68929;42.666;23.324;2023-07-29T04:07:20;4.53;;;3.50;;
79460;SDS011;68929;42.666;23.324;2023-07-29T04:09:45;4.35;;;3.22;;
79460;SDS011;68929;42.666;23.324;2023-07-29T04:12:11;6.20;;;3.88;;
79460;SDS011;68929;42.666;23.324;2023-07-29T04:14:36;3.60;;;3.15;;
79460;SDS011;68929;42.666;23.324;2023-07-29T04:17:02;3.70;;;3.30;;
79460;SDS011;68929;42.666;23.324;2023-07-29T04:19:27;3.95;;;3.35;;
79460;SDS011;68929;42.666;23.324;2023-07-29T04:21:52;5.38;;;3.60;;
79460;SDS011;68929;42.666;23.324;2023-07-29T04:24:18;5.38;;;3.88;;
79460;SDS011;68929;42.666;23.324;2023-07-29T04:26:45;4.53;;;3.30;;
79460;SDS011;68929;42.666;23.324;2023-07-29T04:29:11;6.05;;;3.55;;
79460;SDS011;68929;42.666;23.324;2023-07-29T04:31:36;4.43;;;3.53;;
79460;SDS011;68929;42.666;23.324;2023-07-29T04:34:02;5.07;;;3.75;;
79460;SDS011;68929;42.666;23.324;2023-07-29T04:36:27;5.20;;;4.28;;
79460;SDS011;68929;42.666;23.324;2023-07-29T04:38:53;5.25;;;4.07;;
79460;SDS011;68929;42.666;23.324;2023-07-29T04:41:18;5.25;;;3.88;;
79460;SDS011;68929;42.666;23.324;2023-07-29T04:43:43;4.07;;;3.63;;
79460;SDS011;68929;42.666;23.324;2023-07-29T04:46:09;4.10;;;3.63;;
79460;SDS011;68929;42.666;23.324;2023-07-29T04:48:34;4.93;;;3.83;;
79460;SDS011;68929;42.666;23.324;2023-07-29T04:51:00;7.00;;;3.97;;
79460;SDS011;68929;42.666;23.324;2023-07-29T04:53:25;3.50;;;3.20;;
79460;SDS011;68929;42.666;23.324;2023-07-29T04:55:50;4.95;;;3.25;;
79460;SDS011;68929;42.666;23.324;2023-07-29T04:58:16;5.22;;;3.63;;
79460;SDS011;68929;42.666;23.324;2023-07-29T05:00:41;3.30;;;3.00;;
79460;SDS011;68929;42.666;23.324;2023-07-29T05:03:07;6.90;;;3.22;;
79460;SDS011;68929;42.666;23.324;2023-07-29T05:05:32;3.75;;;3.20;;
79460;SDS011;68929;42.666;23.324;2023-07-29T05:07:58;3.90;;;3.50;;
79460;SDS011;68929;42.666;23.324;2023-07-29T05:10:23;6.45;;;4.00;;
79460;SDS011;68929;42.666;23.324;2023-07-29T05:12:48;5.30;;;3.60;;
79460;SDS011;68929;42.666;23.324;2023-07-29T05:15:14;4.15;;;3.55;;
79460;SDS011;68929;42.666;23.324;2023-07-29T05:17:40;3.92;;;3.50;;
79460;SDS011;68929;42.666;23.324;2023-07-29T05:20:05;4.28;;;3.13;;
79460;SDS011;68929;42.666;23.324;2023-07-29T05:22:31;6.90;;;3.50;;
79460;SDS011;68929;42.666;23.324;2023-07-29T05:24:57;3.78;;;3.00;;
79460;SDS011;68929;42.666;23.324;2023-07-29T05:27:22;3.30;;;3.05;;
79460;SDS011;68929;42.666;23.324;2023-07-29T05:29:47;3.50;;;3.20;;
79460;SDS011;68929;42.666;23.324;2023-07-29T05:32:13;3.67;;;3.38;;
79460;SDS011;68929;42.666;23.324;2023-07-29T05:34:38;3.80;;;3.50;;
79460;SDS011;68929;42.666;23.324;2023-07-29T05:37:04;3.53;;;3.22;;
79460;SDS011;68929;42.666;23.324;2023-07-29T05:39:29;4.10;;;3.70;;
79460;SDS011;68929;42.666;23.324;2023-07-29T05:41:57;3.58;;;3.28;;
79460;SDS011;68929;42.666;23.324;2023-07-29T05:44:22;3.97;;;3.30;;
79460;SDS011;68929;42.666;23.324;2023-07-29T05:46:48;5.03;;;3.63;;
79460;SDS011;68929;42.666;23.324;2023-07-29T05:49:13;5.45;;;4.88;;
79460;SDS011;68929;42.666;23.324;2023-07-29T05:51:38;3.40;;;3.10;;
79460;SDS011;68929;42.666;23.324;2023-07-29T05:54:04;5.22;;;4.50;;
79460;SDS011;68929;42.666;23.324;2023-07-29T05:56:29;4.55;;;4.15;;
79460;SDS011;68929;42.666;23.324;2023-07-29T05:58:56;4.90;;;3.63;;
79460;SDS011;68929;42.666;23.324;2023-07-29T06:01:22;4.13;;;3.63;;
79460;SDS011;68929;42.666;23.324;2023-07-29T06:03:47;6.97;;;3.90;;
79460;SDS011;68929;42.666;23.324;2023-07-29T06:06:12;3.92;;;3.63;;
79460;SDS011;68929;42.666;23.324;2023-07-29T06:08:38;4.20;;;3.80;;
79460;SDS011;68929;42.666;23.324;2023-07-29T06:11:03;9.38;;;4.38;;
79460;SDS011;68929;42.666;23.324;2023-07-29T06:13:31;7.05;;;4.03;;
79460;SDS011;68929;42.666;23.324;2023-07-29T06:15:57;3.85;;;3.55;;
79460;SDS011;68929;42.666;23.324;2023-07-29T06:18:22;6.32;;;3.60;;
79460;SDS011;68929;42.666;23.324;2023-07-29T06:20:48;6.28;;;4.53;;
79460;SDS011;68929;42.666;23.324;2023-07-29T06:23:13;8.75;;;5.20;;
79460;SDS011;68929;42.666;23.324;2023-07-29T06:25:39;5.40;;;3.63;;
79460;SDS011;68929;42.666;23.324;2023-07-29T06:28:04;3.60;;;3.30;;
79460;SDS011;68929;42.666;23.324;2023-07-29T06:30:29;7.05;;;3.95;;
79460;SDS011;68929;42.666;23.324;2023-07-29T06:32:55;6.57;;;4.38;;
79460;SDS011;68929;42.666;23.324;2023-07-29T06:35:20;3.50;;;3.20;;
79460;SDS011;68929;42.666;23.324;2023-07-29T06:37:46;5.47;;;3.60;;
79460;SDS011;68929;42.666;23.324;2023-07-29T06:40:11;5.90;;;3.60;;
79460;SDS011;68929;42.666;23.324;2023-07-29T06:42:37;5.00;;;4.03;;
79460;SDS011;68929;42.666;23.324;2023-07-29T06:45:03;5.35;;;4.22;;
79460;SDS011;68929;42.666;23.324;2023-07-29T06:47:30;6.90;;;3.95;;
79460;SDS011;68929;42.666;23.324;2023-07-29T06:49:55;4.97;;;3.50;;
79460;SDS011;68929;42.666;23.324;2023-07-29T06:52:20;6.03;;;3.47;;
79460;SDS011;68929;42.666;23.324;2023-07-29T06:54:46;4.68;;;3.10;;
79460;SDS011;68929;42.666;23.324;2023-07-29T06:57:11;7.35;;;3.42;;
79460;SDS011;68929;42.666;23.324;2023-07-29T06:59:36;5.15;;;3.00;;
79460;SDS011;68929;42.666;23.324;2023-07-29T07:02:02;3.50;;;3.20;;
79460;SDS011;68929;42.666;23.324;2023-07-29T07:04:27;3.45;;;3.15;;
79460;SDS011;68929;42.666;23.324;2023-07-29T07:06:53;4.85;;;2.75;;
79460;SDS011;68929;42.666;23.324;2023-07-29T07:09:19;4.70;;;3.58;;
79460;SDS011;68929;42.666;23.324;2023-07-29T07:11:44;4.22;;;3.45;;
79460;SDS011;68929;42.666;23.324;2023-07-29T07:14:10;4.32;;;3.28;;
79460;SDS011;68929;42.666;23.324;2023-07-29T07:16:35;4.85;;;3.40;;
79460;SDS011;68929;42.666;23.324;2023-07-29T07:19:02;3.95;;;3.50;;
79460;SDS011;68929;42.666;23.324;2023-07-29T07:21:27;4.00;;;3.60;;
79460;SDS011;68929;42.666;23.324;2023-07-29T07:23:53;9.27;;;4.22;;
79460;SDS011;68929;42.666;23.324;2023-07-29T07:26:18;7.38;;;3.85;;
79460;SDS011;68929;42.666;23.324;2023-07-29T07:28:44;5.18;;;3.80;;
79460;SDS011;68929;42.666;23.324;2023-07-29T07:31:09;5.32;;;3.22;;
79460;SDS011;68929;42.666;23.324;2023-07-29T07:33:34;5.45;;;4.20;;
79460;SDS011;68929;42.666;23.324;2023-07-29T07:36:00;3.70;;;3.40;;
79460;SDS011;68929;42.666;23.324;2023-07-29T07:38:25;5.68;;;3.88;;
79460;SDS011;68929;42.666;23.324;2023-07-29T07:40:54;6.45;;;4.20;;
79460;SDS011;68929;42.666;23.324;2023-07-29T07:43:21;6.07;;;4.00;;
79460;SDS011;68929;42.666;23.324;2023-07-29T07:45:46;5.35;;;4.45;;
79460;SDS011;68929;42.666;23.324;2023-07-29T07:48:17;5.38;;;4.47;;
79460;SDS011;68929;42.666;23.324;2023-07-29T07:50:42;5.05;;;3.85;;
79460;SDS011;68929;42.666;23.324;2023-07-29T07:53:08;3.75;;;3.45;;
79460;SDS011;68929;42.666;23.324;2023-07-29T07:55:33;6.80;;;3.92;;
79460;SDS011;68929;42.666;23.324;2023-07-29T07:57:59;5.82;;;4.45;;
79460;SDS011;68929;42.666;23.324;2023-07-29T08:00:24;5.50;;;4.43;;
79460;SDS011;68929;42.666;23.324;2023-07-29T08:02:50;9.90;;;4.05;;
79460;SDS011;68929;42.666;23.324;2023-07-29T08:05:15;9.05;;;5.13;;
79460;SDS011;68929;42.666;23.324;2023-07-29T08:07:40;4.60;;;3.63;;
79460;SDS011;68929;42.666;23.324;2023-07-29T08:10:06;4.38;;;3.70;;
79460;SDS011;68929;42.666;23.324;2023-07-29T08:12:34;7.22;;;4.55;;
79460;SDS011;68929;42.666;23.324;2023-07-29T08:15:00;7.75;;;4.50;;
79460;SDS011;68929;42.666;23.324;2023-07-29T08:17:25;8.45;;;4.45;;
79460;SDS011;68929;42.666;23.324;2023-07-29T08:19:50;7.90;;;5.05;;
79460;SDS011;68929;42.666;23.324;2023-07-29T08:22:16;7.05;;;4.60;;
79460;SDS011;68929;42.666;23.324;2023-07-29T08:24:42;8.45;;;5.22;;
79460;SDS011;68929;42.666;23.324;2023-07-29T08:27:08;7.18;;;4.70;;
79460;SDS011;68929;42.666;23.324;2023-07-29T08:29:33;5.35;;;3.63;;
79460;SDS011;68929;42.666;23.324;2023-07-29T08:31:59;6.65;;;4.43;;
79460;SDS011;68929;42.666;23.324;2023-07-29T08:34:24;6.97;;;4.28;;
79460;SDS011;68929;42.666;23.324;2023-07-29T08:36:49;4.70;;;3.58;;
79460;SDS011;68929;42.666;23.324;2023-07-29T08:39:15;7.95;;;3.95;;
79460;SDS011;68929;42.666;23.324;2023-07-29T08:41:51;6.97;;;4.00;;
79460;SDS011;68929;42.666;23.324;2023-07-29T08:44:23;5.03;;;3.90;;
79460;SDS011;68929;42.666;23.324;2023-07-29T08:46:51;9.35;;;4.28;;
79460;SDS011;68929;42.666;23.324;2023-07-29T08:49:19;5.25;;;3.75;;
79460;SDS011;68929;42.666;23.324;2023-07-29T08:51:45;4.28;;;3.85;;
79460;SDS011;68929;42.666;23.324;2023-07-29T08:54:13;5.45;;;3.45;;
79460;SDS011;68929;42.666;23.324;2023-07-29T08:56:42;6.00;;;3.10;;
79460;SDS011;68929;42.666;23.324;2023-07-29T08:59:08;5.70;;;3.25;;
79460;SDS011;68929;42.666;23.324;2023-07-29T09:01:34;3.08;;;2.80;;
79460;SDS011;68929;42.666;23.324;2023-07-29T09:03:59;6.15;;;3.20;;
79460;SDS011;68929;42.666;23.324;2023-07-29T09:06:25;4.05;;;3.00;;
79460;SDS011;68929;42.666;23.324;2023-07-29T09:08:53;4.32;;;2.90;;
79460;SDS011;68929;42.666;23.324;2023-07-29T09:11:19;4.30;;;3.55;;
79460;SDS011;68929;42.666;23.324;2023-07-29T09:13:45;10.30;;;3.85;;
79460;SDS011;68929;42.666;23.324;2023-07-29T09:16:11;5.60;;;3.13;;
79460;SDS011;68929;42.666;23.324;2023-07-29T09:18:36;3.58;;;3.20;;
79460;SDS011;68929;42.666;23.324;2023-07-29T09:21:02;2.53;;;2.00;;
79460;SDS011;68929;42.666;23.324;2023-07-29T09:23:28;3.97;;;2.15;;
79460;SDS011;68929;42.666;23.324;2023-07-29T09:26:00;2.17;;;1.98;;
79460;SDS011;68929;42.666;23.324;2023-07-29T09:28:27;2.85;;;2.15;;
79460;SDS011;68929;42.666;23.324;2023-07-29T09:30:58;3.88;;;2.03;;
79460;SDS011;68929;42.666;23.324;2023-07-29T09:33:27;2.35;;;1.95;;
79460;SDS011;68929;42.666;23.324;2023-07-29T09:35:53;2.40;;;2.00;;
79460;SDS011;68929;42.666;23.324;2023-07-29T09:38:25;1.40;;;1.30;;
79460;SDS011;68929;42.666;23.324;2023-07-29T09:40:54;2.80;;;1.80;;
79460;SDS011;68929;42.666;23.324;2023-07-29T09:43:25;2.67;;;2.10;;
79460;SDS011;68929;42.666;23.324;2023-07-29T09:46:00;4.32;;;2.10;;
79460;SDS011;68929;42.666;23.324;2023-07-29T09:48:27;3.65;;;1.95;;
79460;SDS011;68929;42.666;23.324;2023-07-29T09:50:56;2.70;;;2.13;;
79460;SDS011;68929;42.666;23.324;2023-07-29T09:53:21;2.30;;;1.80;;
79460;SDS011;68929;42.666;23.324;2023-07-29T09:55:47;1.40;;;1.25;;
79460;SDS011;68929;42.666;23.324;2023-07-29T09:58:25;1.30;;;1.20;;
79460;SDS011;68929;42.666;23.324;2023-07-29T10:00:51;3.92;;;1.52;;
79460;SDS011;68929;42.666;23.324;2023-07-29T10:03:18;1.42;;;1.33;;
79460;SDS011;68929;42.666;23.324;2023-07-29T10:05:45;2.72;;;1.40;;
79460;SDS011;68929;42.666;23.324;2023-07-29T10:08:11;2.85;;;1.80;;
79460;SDS011;68929;42.666;23.324;2023-07-29T10:10:38;2.50;;;1.73;;
79460;SDS011;68929;42.666;23.324;2023-07-29T10:13:06;2.03;;;1.83;;
79460;SDS011;68929;42.666;23.324;2023-07-29T10:15:35;2.00;;;1.70;;
79460;SDS011;68929;42.666;23.324;2023-07-29T10:18:01;2.00;;;1.80;;
79460;SDS011;68929;42.666;23.324;2023-07-29T10:20:28;7.45;;;1.55;;
79460;SDS011;68929;42.666;23.324;2023-07-29T10:22:55;4.30;;;1.70;;
79460;SDS011;68929;42.666;23.324;2023-07-29T10:25:24;2.00;;;1.80;;
79460;SDS011;68929;42.666;23.324;2023-07-29T10:27:54;3.70;;;1.70;;
79460;SDS011;68929;42.666;23.324;2023-07-29T10:30:23;1.90;;;1.50;;
79460;SDS011;68929;42.666;23.324;2023-07-29T10:32:49;1.38;;;1.27;;
79460;SDS011;68929;42.666;23.324;2023-07-29T10:35:15;1.77;;;1.50;;
79460;SDS011;68929;42.666;23.324;2023-07-29T10:37:41;1.75;;;1.40;;
79460;SDS011;68929;42.666;23.324;2023-07-29T10:40:08;2.90;;;1.30;;
79460;SDS011;68929;42.666;23.324;2023-07-29T10:42:36;1.25;;;1.10;;
79460;SDS011;68929;42.666;23.324;2023-07-29T10:45:16;1.30;;;1.20;;
79460;SDS011;68929;42.666;23.324;2023-07-29T10:47:43;2.67;;;1.40;;
79460;SDS011;68929;42.666;23.324;2023-07-29T10:50:18;2.08;;;1.30;;
79460;SDS011;68929;42.666;23.324;2023-07-29T10:52:48;1.55;;;1.40;;
79460;SDS011;68929;42.666;23.324;2023-07-29T10:55:26;1.50;;;1.40;;
79460;SDS011;68929;42.666;23.324;2023-07-29T10:58:03;2.67;;;1.92;;
79460;SDS011;68929;42.666;23.324;2023-07-29T11:00:30;1.10;;;1.00;;
79460;SDS011;68929;42.666;23.324;2023-07-29T11:02:58;2.35;;;1.40;;
79460;SDS011;68929;42.666;23.324;2023-07-29T11:05:50;1.23;;;1.13;;
79460;SDS011;68929;42.666;23.324;2023-07-29T11:08:25;1.20;;;1.10;;
79460;SDS011;68929;42.666;23.324;2023-07-29T11:13:37;1.00;;;0.90;;
79460;SDS011;68929;42.666;23.324;2023-07-29T11:16:03;2.10;;;1.10;;
79460;SDS011;68929;42.666;23.324;2023-07-29T11:18:34;1.20;;;1.05;;
79460;SDS011;68929;42.666;23.324;2023-07-29T11:21:00;1.80;;;1.25;;
79460;SDS011;68929;42.666;23.324;2023-07-29T11:23:31;1.30;;;1.20;;
79460;SDS011;68929;42.666;23.324;2023-07-29T11:26:01;5.40;;;1.60;;
79460;SDS011;68929;42.666;23.324;2023-07-29T11:28:27;1.45;;;1.35;;
79460;SDS011;68929;42.666;23.324;2023-07-29T11:30:54;1.30;;;1.20;;
79460;SDS011;68929;42.666;23.324;2023-07-29T11:33:24;1.50;;;1.40;;
79460;SDS011;68929;42.666;23.324;2023-07-29T11:35:51;1.27;;;1.17;;
79460;SDS011;68929;42.666;23.324;2023-07-29T11:38:18;1.42;;;1.33;;
79460;SDS011;68929;42.666;23.324;2023-07-29T11:40:54;2.35;;;1.33;;
79460;SDS011;68929;42.666;23.324;2023-07-29T11:43:28;2.53;;;1.20;;
79460;SDS011;68929;42.666;23.324;2023-07-29T11:45:53;1.65;;;1.20;;
79460;SDS011;68929;42.666;23.324;2023-07-29T11:48:28;5.55;;;1.30;;
79460;SDS011;68929;42.666;23.324;2023-07-29T11:50:59;1.35;;;1.25;;
79460;SDS011;68929;42.666;23.324;2023-07-29T11:53:27;2.05;;;1.48;;
79460;SDS011;68929;42.666;23.324;2023-07-29T11:55:54;1.17;;;1.08;;
79460;SDS011;68929;42.666;23.324;2023-07-29T11:58:20;2.05;;;1.40;;
79460;SDS011;68929;42.666;23.324;2023-07-29T12:00:46;2.65;;;1.45;;
79460;SDS011;68929;42.666;23.324;2023-07-29T12:03:12;2.75;;;1.77;;
79460;SDS011;68929;42.666;23.324;2023-07-29T12:05:37;1.58;;;1.48;;
79460;SDS011;68929;42.666;23.324;2023-07-29T12:08:03;4.03;;;1.63;;
79460;SDS011;68929;42.666;23.324;2023-07-29T12:10:29;1.55;;;1.45;;
79460;SDS011;68929;42.666;23.324;2023-07-29T12:12:55;1.73;;;1.20;;
79460;SDS011;68929;42.666;23.324;2023-07-29T12:15:24;1.70;;;1.60;;
79460;SDS011;68929;42.666;23.324;2023-07-29T12:17:54;2.35;;;1.50;;
79460;SDS011;68929;42.666;23.324;2023-07-29T12:20:21;1.85;;;1.38;;
79460;SDS011;68929;42.666;23.324;2023-07-29T12:22:51;1.70;;;1.60;;
79460;SDS011;68929;42.666;23.324;2023-07-29T12:25:20;2.90;;;1.60;;
79460;SDS011;68929;42.666;23.324;2023-07-29T12:27:46;2.60;;;1.60;;
79460;SDS011;68929;42.666;23.324;2023-07-29T12:30:12;2.83;;;1.52;;
79460;SDS011;68929;42.666;23.324;2023-07-29T12:32:44;3.10;;;1.60;;
79460;SDS011;68929;42.666;23.324;2023-07-29T12:35:11;3.92;;;1.40;;
79460;SDS011;68929;42.666;23.324;2023-07-29T12:37:36;3.45;;;1.95;;
79460;SDS011;68929;42.666;23.324;2023-07-29T12:40:03;1.40;;;1.30;;
79460;SDS011;68929;42.666;23.324;2023-07-29T12:42:29;1.55;;;1.40;;
79460;SDS011;68929;42.666;23.324;2023-07-29T12:44:55;2.58;;;1.55;;
79460;SDS011;68929;42.666;23.324;2023-07-29T12:47:20;1.85;;;1.45;;
79460;SDS011;68929;42.666;23.324;2023-07-29T12:49:45;3.28;;;1.65;;
79460;SDS011;68929;42.666;23.324;2023-07-29T12:52:11;1.50;;;1.40;;
79460;SDS011;68929;42.666;23.324;2023-07-29T12:54:36;4.35;;;2.03;;
79460;SDS011;68929;42.666;23.324;2023-07-29T12:57:02;2.08;;;1.52;;
79460;SDS011;68929;42.666;23.324;2023-07-29T12:59:27;1.90;;;1.80;;
79460;SDS011;68929;42.666;23.324;2023-07-29T13:01:52;2.03;;;1.60;;
79460;SDS011;68929;42.666;23.324;2023-07-29T13:04:18;2.55;;;1.58;;
79460;SDS011;68929;42.666;23.324;2023-07-29T13:06:43;1.83;;;1.40;;
79460;SDS011;68929;42.666;23.324;2023-07-29T13:09:09;1.90;;;1.70;;
79460;SDS011;68929;42.666;23.324;2023-07-29T13:11:34;5.10;;;1.42;;
79460;SDS011;68929;42.666;23.324;2023-07-29T13:13:59;2.08;;;1.33;;
79460;SDS011;68929;42.666;23.324;2023-07-29T13:16:25;7.35;;;1.75;;
79460;SDS011;68929;42.666;23.324;2023-07-29T13:18:51;1.65;;;1.55;;
79460;SDS011;68929;42.666;23.324;2023-07-29T13:21:17;1.67;;;1.40;;
79460;SDS011;68929;42.666;23.324;2023-07-29T13:23:42;1.60;;;1.50;;
79460;SDS011;68929;42.666;23.324;2023-07-29T13:26:07;2.05;;;1.50;;
79460;SDS011;68929;42.666;23.324;2023-07-29T13:28:33;1.52;;;1.42;;
79460;SDS011;68929;42.666;23.324;2023-07-29T13:30:58;1.77;;;1.67;;
79460;SDS011;68929;42.666;23.324;2023-07-29T13:33:24;1.63;;;1.52;;
79460;SDS011;68929;42.666;23.324;2023-07-29T13:35:50;1.60;;;1.50;;
79460;SDS011;68929;42.666;23.324;2023-07-29T13:38:15;3.80;;;1.70;;
79460;SDS011;68929;42.666;23.324;2023-07-29T13:40:41;1.65;;;1.55;;
79460;SDS011;68929;42.666;23.324;2023-07-29T13:43:06;4.05;;;2.13;;
79460;SDS011;68929;42.666;23.324;2023-07-29T13:45:33;2.78;;;1.70;;
79460;SDS011;68929;42.666;23.324;2023-07-29T13:47:58;2.67;;;1.70;;
79460;SDS011;68929;42.666;23.324;2023-07-29T13:50:24;2.33;;;2.00;;
79460;SDS011;68929;42.666;23.324;2023-07-29T13:52:49;4.38;;;2.10;;
79460;SDS011;68929;42.666;23.324;2023-07-29T13:55:14;2.78;;;2.03;;
79460;SDS011;68929;42.666;23.324;2023-07-29T13:57:40;2.17;;;2.00;;
79460;SDS011;68929;42.666;23.324;2023-07-29T14:00:06;2.78;;;1.75;;
79460;SDS011;68929;42.666;23.324;2023-07-29T14:02:33;2.00;;;1.83;;
79460;SDS011;68929;42.666;23.324;2023-07-29T14:04:58;2.95;;;1.83;;
79460;SDS011;68929;42.666;23.324;2023-07-29T14:07:24;4.70;;;2.00;;
79460;SDS011;68929;42.666;23.324;2023-07-29T14:09:49;2.05;;;1.83;;
79460;SDS011;68929;42.666;23.324;2023-07-29T14:12:15;3.45;;;2.10;;
79460;SDS011;68929;42.666;23.324;2023-07-29T14:14:43;2.50;;;1.95;;
79460;SDS011;68929;42.666;23.324;2023-07-29T14:17:09;3.03;;;2.00;;
79460;SDS011;68929;42.666;23.324;2023-07-29T14:19:35;3.70;;;1.90;;
79460;SDS011;68929;42.666;23.324;2023-07-29T14:22:01;2.92;;;2.22;;
79460;SDS011;68929;42.666;23.324;2023-07-29T14:24:26;3.80;;;1.90;;
79460;SDS011;68929;42.666;23.324;2023-07-29T14:26:51;1.83;;;1.67;;
79460;SDS011;68929;42.666;23.324;2023-07-29T14:29:17;3.38;;;2.30;;
79460;SDS011;68929;42.666;23.324;2023-07-29T14:31:42;4.13;;;1.92;;
79460;SDS011;68929;42.666;23.324;2023-07-29T14:34:07;1.77;;;1.67;;
79460;SDS011;68929;42.666;23.324;2023-07-29T14:36:34;2.85;;;1.92;;
79460;SDS011;68929;42.666;23.324;2023-07-29T14:38:59;2.33;;;2.00;;
79460;SDS011;68929;42.666;23.324;2023-07-29T14:41:24;1.90;;;1.80;;